Time;durP1;ratioP1;P1;durP2;ratioP2;P2;SDS_P1;SDS_P2;PMS_P1;PMS_P2;Temp;Humidity;BMP_temperature;BMP_pressure;BME280_temperature;BME280_humidity;BME280_pressure;Samples;Min_cycle;Max_cycle;Signal;HPM_P1;HPM_P2
2022/12/13 00:01:44;;;;;;;1999.90;999.90;;;-3.90;99.90;;;;;;5044732;28;20489;-66
2022/12/13 00:04:10;;;;;;;1999.90;999.90;;;-3.90;99.90;;;;;;5046010;28;20055;-66
2022/12/13 00:06:35;;;;;;;1999.90;999.90;;;-3.90;99.90;;;;;;5044938;28;20049;-66
2022/12/13 00:09:02;;;;;;;1999.90;999.90;;;-4.00;99.90;;;;;;5060858;28;20094;-66
2022/12/13 00:11:29;;;;;;;1999.90;999.90;;;-4.00;99.90;;;;;;5043378;28;20509;-66
2022/12/13 00:13:54;;;;;;;1999.90;999.90;;;-4.00;99.90;;;;;;5043105;28;20063;-66
2022/12/13 00:16:22;;;;;;;1999.90;999.90;;;-4.00;99.90;;;;;;5028630;28;20520;-66
2022/12/13 00:18:56;;;;;;;1999.90;999.90;;;-4.00;99.90;;;;;;5043892;28;20094;-66
2022/12/13 00:21:26;;;;;;;1999.90;999.90;;;-4.00;99.90;;;;;;5041156;28;20113;-66
2022/12/13 00:23:52;;;;;;;1999.90;999.90;;;-4.00;99.90;;;;;;5046007;28;20431;-66
2022/12/13 00:26:25;;;;;;;1999.90;999.90;;;-4.00;99.90;;;;;;5029801;28;20501;-66
2022/12/13 00:28:52;;;;;;;1999.90;999.90;;;-4.00;99.90;;;;;;5029320;28;20040;-66
2022/12/13 00:31:19;;;;;;;1999.90;999.90;;;-4.00;99.90;;;;;;5030326;28;20093;-66
2022/12/13 00:33:45;;;;;;;1999.90;999.90;;;-4.00;99.90;;;;;;5028806;28;20036;-66
2022/12/13 00:36:11;;;;;;;1999.90;999.90;;;-4.00;99.90;;;;;;5043933;28;20387;-66
2022/12/13 00:38:37;;;;;;;1999.90;999.90;;;-4.00;99.90;;;;;;5028896;28;20135;-65
2022/12/13 00:41:18;;;;;;;1999.90;999.90;;;-4.00;99.90;;;;;;5045614;28;20040;-66
2022/12/13 00:43:45;;;;;;;1999.90;999.90;;;-4.10;99.90;;;;;;5045615;28;20115;-66
2022/12/13 00:46:16;;;;;;;1999.90;999.90;;;-4.10;99.90;;;;;;5040024;28;20047;-65
2022/12/13 00:48:42;;;;;;;1999.90;999.90;;;-4.10;99.90;;;;;;5045884;28;20052;-66
2022/12/13 00:51:10;;;;;;;1999.90;999.90;;;-4.10;99.90;;;;;;5043858;28;20048;-65
2022/12/13 00:53:35;;;;;;;1999.90;999.90;;;-4.10;99.90;;;;;;5058076;28;20066;-65
2022/12/13 00:56:02;;;;;;;1999.90;999.90;;;-4.20;99.90;;;;;;5027067;28;20707;-66
2022/12/13 00:58:27;;;;;;;1999.90;999.90;;;-4.20;99.90;;;;;;5026913;28;20040;-66
2022/12/13 01:01:02;;;;;;;1999.90;999.90;;;-4.30;99.90;;;;;;5049831;28;20481;-66
2022/12/13 01:03:27;;;;;;;1999.90;999.90;;;-4.20;99.90;;;;;;5049207;28;20055;-65
2022/12/13 01:05:53;;;;;;;1999.90;999.90;;;-4.20;99.90;;;;;;5051467;28;20040;-65
2022/12/13 01:08:18;;;;;;;1999.90;999.90;;;-4.30;99.90;;;;;;5050321;28;20052;-65
2022/12/13 01:10:45;;;;;;;1999.90;999.90;;;-4.30;99.90;;;;;;5051821;28;20086;-65
2022/12/13 01:13:12;;;;;;;1999.90;999.90;;;-4.30;99.90;;;;;;5049106;28;20078;-66
2022/12/13 01:15:46;;;;;;;1999.90;999.90;;;-4.30;99.90;;;;;;5036128;28;20077;-65
2022/12/13 01:18:13;;;;;;;1999.90;999.90;;;-4.30;99.90;;;;;;5083802;28;20039;-66
2022/12/13 01:20:39;;;;;;;1999.90;999.90;;;-4.30;99.90;;;;;;5050517;28;20478;-66
2022/12/13 01:23:06;;;;;;;1999.90;999.90;;;-4.30;99.90;;;;;;5046083;28;20515;-65
2022/12/13 01:25:32;;;;;;;1999.90;999.90;;;-4.30;99.90;;;;;;5052167;28;20068;-65
2022/12/13 01:27:59;;;;;;;1999.90;999.90;;;-4.30;99.90;;;;;;5048917;28;20055;-65
2022/12/13 01:30:25;;;;;;;1999.90;999.90;;;-4.30;99.90;;;;;;5052844;28;20048;-66
2022/12/13 01:32:50;;;;;;;1999.90;999.90;;;-4.40;99.90;;;;;;5047624;28;20100;-65
2022/12/13 01:35:16;;;;;;;1999.90;999.90;;;-4.40;99.90;;;;;;5034547;28;20486;-65
2022/12/13 01:37:41;;;;;;;1999.90;999.90;;;-4.40;99.90;;;;;;5033338;28;20041;-65
2022/12/13 01:40:08;;;;;;;1999.90;999.90;;;-4.40;99.90;;;;;;5050093;28;20064;-65
2022/12/13 01:42:37;;;;;;;1999.90;999.90;;;-4.40;99.90;;;;;;5063705;28;20059;-65
2022/12/13 01:45:19;;;;;;;1999.90;999.90;;;-4.40;99.90;;;;;;5066738;28;20406;-65
2022/12/13 01:47:52;;;;;;;1999.90;999.90;;;-4.50;99.90;;;;;;5033823;28;20040;-65
2022/12/13 01:50:20;;;;;;;;;;;-4.40;99.90;;;;;;5050712;28;20046;-65
2022/12/13 01:52:47;;;;;;;1999.90;999.90;;;-4.50;99.90;;;;;;5048619;28;19924;-65
2022/12/13 01:55:15;;;;;;;1999.90;999.90;;;-4.50;99.90;;;;;;5050596;28;20440;-65
2022/12/13 01:57:42;;;;;;;1999.90;999.90;;;-4.40;99.90;;;;;;5070137;28;20044;-65
2022/12/13 02:00:09;;;;;;;1999.90;999.90;;;-4.50;99.90;;;;;;5068745;28;20083;-65
2022/12/13 02:02:35;;;;;;;1999.90;999.90;;;-4.50;99.90;;;;;;5048770;28;20410;-65
2022/12/13 02:05:26;;;;;;;1999.90;999.90;;;-4.50;99.90;;;;;;5033700;28;20094;-65
2022/12/13 02:07:52;;;;;;;1999.90;999.90;;;-4.60;99.90;;;;;;5044425;28;20414;-65
2022/12/13 02:10:18;;;;;;;1999.90;999.90;;;-4.60;99.90;;;;;;5049975;28;20098;-66
2022/12/13 02:12:44;;;;;;;1999.90;999.90;;;-4.60;99.90;;;;;;5032270;28;20445;-65
2022/12/13 02:15:13;;;;;;;1999.90;999.90;;;-4.60;99.90;;;;;;5030324;28;20056;-65
2022/12/13 02:18:09;;;;;;;1999.90;999.90;;;-4.70;99.90;;;;;;5046935;28;20121;-65
2022/12/13 02:20:44;;;;;;;1999.90;999.90;;;-4.70;99.90;;;;;;5045472;28;20036;-65
2022/12/13 02:23:25;;;;;;;1999.90;999.90;;;-4.70;99.90;;;;;;5046318;28;20377;-66
2022/12/13 02:26:54;;;;;;;1999.90;999.90;;;-4.80;99.90;;;;;;5028311;28;20413;-65
2022/12/13 02:29:40;;;;;;;1999.90;999.90;;;-4.80;99.90;;;;;;4969642;28;20452;-65
2022/12/13 02:32:17;;;;;;;1999.90;999.90;;;-4.90;99.90;;;;;;5042478;28;20059;-65
2022/12/13 02:34:56;;;;;;;1999.90;999.90;;;-4.90;99.90;;;;;;5046790;28;20097;-65
2022/12/13 02:37:50;;;;;;;1999.90;999.90;;;-4.90;99.90;;;;;;5030825;28;20123;-65
2022/12/13 02:40:40;;;;;;;1999.90;999.90;;;-4.90;99.90;;;;;;5046669;28;20044;-65
2022/12/13 02:43:22;;;;;;;1999.90;999.90;;;-4.90;99.90;;;;;;5065469;28;20497;-65
2022/12/13 02:45:51;;;;;;;1999.90;999.90;;;-5.00;99.90;;;;;;5046344;28;20499;-65
2022/12/13 02:48:23;;;;;;;1999.90;999.90;;;-5.00;99.90;;;;;;5044493;28;20355;-65
2022/12/13 02:50:51;;;;;;;1999.90;999.90;;;-5.00;99.90;;;;;;5047050;28;20070;-65
2022/12/13 02:53:18;;;;;;;1999.90;999.90;;;-5.00;99.90;;;;;;5044079;28;20059;-65
2022/12/13 02:55:44;;;;;;;1999.90;999.90;;;-5.00;99.90;;;;;;5047878;28;20055;-65
2022/12/13 02:58:18;;;;;;;1999.90;999.90;;;-4.90;99.90;;;;;;5029605;28;20045;-65
2022/12/13 03:01:08;;;;;;;1999.90;999.90;;;-4.90;99.90;;;;;;5044897;28;20059;-65
2022/12/13 03:03:53;;;;;;;1999.90;999.90;;;-5.00;99.90;;;;;;5044175;28;20528;-65
2022/12/13 03:06:42;;;;;;;1999.90;999.90;;;-5.00;99.90;;;;;;5079433;28;20056;-65
2022/12/13 03:09:40;;;;;;;1999.90;999.90;;;-5.00;99.90;;;;;;5043159;28;20045;-66
2022/12/13 03:15:23;;;;;;;1999.90;999.90;;;-4.90;99.90;;;;;;5048366;28;20052;-65
2022/12/13 03:18:02;;;;;;;1999.90;999.90;;;-5.00;99.90;;;;;;5040304;28;20444;-65
2022/12/13 03:20:29;;;;;;;1999.90;999.90;;;-5.10;99.90;;;;;;5046306;28;20040;-65
2022/12/13 03:22:56;;;;;;;1999.90;999.90;;;-5.10;99.90;;;;;;5044780;28;20033;-65
2022/12/13 03:25:28;;;;;;;1999.90;999.90;;;-5.20;99.90;;;;;;5045823;28;20040;-66
2022/12/13 03:27:54;;;;;;;1999.90;999.90;;;-5.10;99.90;;;;;;5046969;28;20041;-65
2022/12/13 03:30:19;;;;;;;1999.90;999.90;;;-5.10;99.90;;;;;;5044180;28;20047;-65
2022/12/13 03:32:45;;;;;;;1999.90;999.90;;;-5.20;99.90;;;;;;5061320;28;20064;-65
2022/12/13 03:35:10;;;;;;;1999.90;999.90;;;-5.20;99.90;;;;;;5048736;28;20036;-66
2022/12/13 03:37:36;;;;;;;1999.90;999.90;;;-5.10;99.90;;;;;;5044835;28;20040;-65
2022/12/13 03:40:02;;;;;;;1999.90;999.90;;;-5.10;99.90;;;;;;5045635;28;20068;-65
2022/12/13 03:42:28;;;;;;;1999.90;999.90;;;-5.00;99.90;;;;;;5044972;28;20040;-65
2022/12/13 03:44:53;;;;;;;1999.90;999.90;;;-5.00;99.90;;;;;;5022381;28;20037;-65
2022/12/13 03:47:19;;;;;;;1999.90;999.90;;;-4.90;99.90;;;;;;5031037;28;20037;-65
2022/12/13 03:49:45;;;;;;;1999.90;999.90;;;-4.90;99.90;;;;;;5028270;28;20044;-65
2022/12/13 03:52:10;;;;;;;1999.90;999.90;;;-4.80;99.90;;;;;;5042142;28;20410;-65
2022/12/13 03:54:36;;;;;;;1999.90;999.90;;;-4.80;99.90;;;;;;5061872;28;20037;-65
2022/12/13 03:57:02;;;;;;;1999.90;999.90;;;-4.80;99.90;;;;;;5047130;28;20054;-65
2022/12/13 03:59:27;;;;;;;1999.90;999.90;;;-4.80;99.90;;;;;;5060969;28;20474;-65
2022/12/13 04:01:53;;;;;;;1999.90;999.90;;;-4.90;99.90;;;;;;5027689;28;20509;-65
2022/12/13 04:04:18;;;;;;;1999.90;999.90;;;-4.90;99.90;;;;;;5046934;28;20075;-66
2022/12/13 04:06:44;;;;;;;1999.90;999.90;;;-4.90;99.90;;;;;;5076742;28;20544;-66
2022/12/13 04:09:09;;;;;;;1999.90;999.90;;;-4.90;99.90;;;;;;5045787;28;20064;-66
2022/12/13 04:14:19;;;;;;;1999.90;999.90;;;-4.90;99.90;;;;;;5041502;28;20048;-66
2022/12/13 04:16:45;;;;;;;1999.90;999.90;;;-4.90;99.90;;;;;;5043292;28;20047;-66
2022/12/13 04:19:10;;;;;;;1999.90;999.90;;;-4.90;99.90;;;;;;5044641;28;20040;-66
2022/12/13 04:21:36;;;;;;;1999.90;999.90;;;-4.90;99.90;;;;;;5045821;28;20032;-66
2022/12/13 04:24:02;;;;;;;1999.90;999.90;;;-5.00;99.90;;;;;;5040990;28;20037;-65
2022/12/13 04:26:28;;;;;;;1999.90;999.90;;;-5.00;99.90;;;;;;5030622;28;20036;-66
2022/12/13 04:28:53;;;;;;;1999.90;999.90;;;-5.00;99.90;;;;;;5045080;28;20506;-66
2022/12/13 04:31:19;;;;;;;1999.90;999.90;;;-5.10;99.90;;;;;;5030135;28;20033;-65
2022/12/13 04:33:44;;;;;;;1999.90;999.90;;;-5.00;99.90;;;;;;5044830;28;20094;-65
2022/12/13 04:36:10;;;;;;;1999.90;999.90;;;-5.00;99.90;;;;;;5046564;28;20060;-65
2022/12/13 04:38:36;;;;;;;1999.90;999.90;;;-5.00;99.90;;;;;;5045118;28;20123;-65
2022/12/13 04:41:07;;;;;;;1999.90;999.90;;;-5.00;99.90;;;;;;5013691;28;20478;-66
2022/12/13 04:43:32;;;;;;;1999.90;999.90;;;-5.00;99.90;;;;;;5045036;28;20089;-66
2022/12/13 04:45:58;;;;;;;1999.90;999.90;;;-5.00;99.90;;;;;;5043841;28;20036;-66
2022/12/13 04:48:23;;;;;;;1999.90;999.90;;;-5.00;99.90;;;;;;5061741;28;20051;-65
2022/12/13 04:50:49;;;;;;;1999.90;999.90;;;-5.10;99.90;;;;;;5044366;28;20171;-65
2022/12/13 04:53:15;;;;;;;1999.90;999.90;;;-5.10;99.90;;;;;;5042714;28;20692;-65
2022/12/13 04:55:41;;;;;;;1999.90;999.90;;;-5.10;99.90;;;;;;5044776;28;20036;-66
2022/12/13 04:58:06;;;;;;;1999.90;999.90;;;-5.10;99.90;;;;;;5026586;28;20036;-66
2022/12/13 05:00:32;;;;;;;1999.90;999.90;;;-5.10;99.90;;;;;;5028764;28;20045;-66
2022/12/13 05:02:57;;;;;;;1999.90;999.90;;;-5.00;99.90;;;;;;5042693;28;20163;-66
2022/12/13 05:05:23;;;;;;;1999.90;999.90;;;-4.90;99.90;;;;;;5030076;28;20040;-66
2022/12/13 05:07:49;;;;;;;1999.90;999.90;;;-4.90;99.90;;;;;;5029921;28;20262;-66
2022/12/13 05:10:15;;;;;;;1999.90;999.90;;;-4.80;99.90;;;;;;5044620;28;20473;-65
2022/12/13 05:12:40;;;;;;;1999.90;999.90;;;-4.90;99.90;;;;;;5041354;28;20055;-65
2022/12/13 05:15:06;;;;;;;1999.90;999.90;;;-4.90;99.90;;;;;;5061573;28;20484;-65
2022/12/13 05:17:33;;;;;;;1999.90;999.90;;;-5.00;99.90;;;;;;5044471;28;20115;-65
2022/12/13 05:19:58;;;;;;;1999.90;999.90;;;-5.00;99.90;;;;;;5045540;28;20043;-65
2022/12/13 05:22:24;;;;;;;1999.90;999.90;;;-5.00;99.90;;;;;;5026585;28;20486;-65
2022/12/13 05:24:50;;;;;;;1999.90;999.90;;;-5.00;99.90;;;;;;5044082;28;20041;-65
2022/12/13 05:27:16;;;;;;;1999.90;999.90;;;-5.00;99.90;;;;;;5042029;28;20047;-67
2022/12/13 05:29:41;;;;;;;1999.90;999.90;;;-5.00;99.90;;;;;;5042777;28;20033;-66
2022/12/13 05:32:07;;;;;;;1999.90;999.90;;;-5.10;99.90;;;;;;5045868;28;20474;-66
2022/12/13 05:34:32;;;;;;;1999.90;999.90;;;-5.10;99.90;;;;;;5080782;28;20051;-65
2022/12/13 05:36:58;;;;;;;1999.90;999.90;;;-5.00;99.90;;;;;;5042064;28;20079;-66
2022/12/13 05:39:24;;;;;;;1999.90;999.90;;;-5.00;99.90;;;;;;5028244;28;20118;-66
2022/12/13 05:41:50;;;;;;;1999.90;999.90;;;-5.00;99.90;;;;;;5061383;28;20036;-66
2022/12/13 05:44:15;;;;;;;1999.90;999.90;;;-5.00;99.90;;;;;;5075861;28;20843;-66
2022/12/13 05:46:41;;;;;;;1999.90;999.90;;;-4.90;99.90;;;;;;5047720;28;20032;-65
2022/12/13 05:49:07;;;;;;;1999.90;999.90;;;-5.00;99.90;;;;;;5045683;28;20092;-66
2022/12/13 05:51:32;;;;;;;1999.90;999.90;;;-5.00;99.90;;;;;;5045498;28;20549;-65
2022/12/13 05:53:58;;;;;;;1999.90;999.90;;;-5.00;99.90;;;;;;5046487;28;20056;-66
2022/12/13 05:56:23;;;;;;;1999.90;999.90;;;-5.10;99.90;;;;;;5047293;28;20036;-65
2022/12/13 05:58:49;;;;;;;1999.90;999.90;;;-5.10;99.90;;;;;;5032239;28;20182;-65
2022/12/13 06:01:15;;;;;;;1999.90;999.90;;;-5.20;99.90;;;;;;5073145;28;20109;-65
2022/12/13 06:03:42;;;;;;;1999.90;999.90;;;-5.20;99.90;;;;;;5031002;28;20060;-65
2022/12/13 06:06:09;;;;;;;1999.90;999.90;;;-5.20;99.90;;;;;;5046430;28;20049;-66
2022/12/13 06:08:36;;;;;;;1999.90;999.90;;;-5.20;99.90;;;;;;5049591;28;20125;-66
2022/12/13 06:11:03;;;;;;;1999.90;999.90;;;-5.30;99.90;;;;;;5048565;28;20036;-66
2022/12/13 06:13:28;;;;;;;1999.90;999.90;;;-5.30;99.90;;;;;;5048784;28;20045;-66
2022/12/13 06:15:59;;;;;;;1999.90;999.90;;;-5.30;99.90;;;;;;5031625;28;20043;-66
2022/12/13 06:18:24;;;;;;;1999.90;999.90;;;-5.30;99.90;;;;;;5028591;28;20119;-66
2022/12/13 06:20:58;;;;;;;1999.90;999.90;;;-5.40;99.90;;;;;;5042987;28;20109;-66
2022/12/13 06:23:24;;;;;;;1999.90;999.90;;;-5.30;99.90;;;;;;5040949;28;20044;-66
2022/12/13 06:25:49;;;;;;;1999.90;999.90;;;-5.30;99.90;;;;;;5031052;28;20397;-66
2022/12/13 06:28:15;;;;;;;1999.90;999.90;;;-5.30;99.90;;;;;;5048961;28;20048;-66
2022/12/13 06:30:41;;;;;;;1999.90;999.90;;;-5.30;99.90;;;;;;5049081;28;20040;-66
2022/12/13 06:33:07;;;;;;;1999.90;999.90;;;-5.30;99.90;;;;;;5025771;28;20518;-66
2022/12/13 06:35:33;;;;;;;1999.90;999.90;;;-5.30;99.90;;;;;;5065594;28;20048;-66
2022/12/13 06:37:59;;;;;;;1999.90;999.90;;;-5.30;99.90;;;;;;5047355;28;20123;-66
2022/12/13 06:40:24;;;;;;;1999.90;999.90;;;-5.40;99.90;;;;;;5046204;28;20144;-66
2022/12/13 06:42:50;;;;;;;1999.90;999.90;;;-5.40;99.90;;;;;;5029463;28;20128;-66
2022/12/13 06:45:16;;;;;;;1999.90;999.90;;;-5.40;99.90;;;;;;5064063;28;20123;-66
2022/12/13 06:47:41;;;;;;;1999.90;999.90;;;-5.30;99.90;;;;;;5042382;28;20102;-66
2022/12/13 06:50:08;;;;;;;1999.90;999.90;;;-5.30;99.90;;;;;;5025388;28;20577;-66
2022/12/13 06:52:34;;;;;;;1999.90;999.90;;;-5.30;99.90;;;;;;5045089;28;20052;-66
2022/12/13 06:55:00;;;;;;;1999.90;999.90;;;-5.20;99.90;;;;;;5040194;28;20072;-66
2022/12/13 06:57:25;;;;;;;1999.90;999.90;;;-5.20;99.90;;;;;;5058383;28;20187;-66
2022/12/13 06:59:51;;;;;;;1999.90;999.90;;;-5.10;99.90;;;;;;5027664;28;20036;-66
2022/12/13 07:02:17;;;;;;;1999.90;999.90;;;-5.10;99.90;;;;;;5061941;28;20046;-66
2022/12/13 07:04:42;;;;;;;1999.90;999.90;;;-5.00;99.90;;;;;;5042147;28;20119;-66
2022/12/13 07:07:08;;;;;;;1999.90;999.90;;;-5.00;99.90;;;;;;5026446;28;20119;-66
2022/12/13 07:09:34;;;;;;;1999.90;999.90;;;-5.00;99.90;;;;;;5024240;28;20115;-66
2022/12/13 07:11:59;;;;;;;1999.90;999.90;;;-4.90;99.90;;;;;;5029618;28;20052;-66
2022/12/13 07:14:25;;;;;;;1999.90;999.90;;;-4.90;99.90;;;;;;5027673;28;20148;-66
2022/12/13 07:16:51;;;;;;;1999.90;999.90;;;-4.80;99.90;;;;;;5066083;28;20497;-66
2022/12/13 07:19:16;;;;;;;1999.90;999.90;;;-4.90;99.90;;;;;;5047679;28;20063;-66
2022/12/13 07:21:42;;;;;;;1999.90;999.90;;;-4.80;99.90;;;;;;5028349;28;20044;-66
2022/12/13 07:24:08;;;;;;;1999.90;999.90;;;-4.80;99.90;;;;;;5045518;28;20048;-66
2022/12/13 07:26:33;;;;;;;1999.90;999.90;;;-4.80;99.90;;;;;;5028543;28;20051;-66
2022/12/13 07:28:59;;;;;;;1999.90;999.90;;;-4.80;99.90;;;;;;5049251;28;20040;-66
2022/12/13 07:31:24;;;;;;;1999.90;999.90;;;-4.80;99.90;;;;;;5030440;28;20051;-66
2022/12/13 07:33:50;;;;;;;1999.90;999.90;;;-4.80;99.90;;;;;;5048786;28;20494;-66
2022/12/13 07:36:21;;;;;;;1999.90;999.90;;;-4.80;99.90;;;;;;5080912;28;20044;-66
2022/12/13 07:38:54;;;;;;;1999.90;999.90;;;-4.70;99.90;;;;;;5047350;28;20032;-66
2022/12/13 07:41:21;;;;;;;1999.90;999.90;;;-4.70;99.90;;;;;;5046439;28;20234;-66
2022/12/13 07:43:47;;;;;;;1999.90;999.90;;;-4.70;99.90;;;;;;5049262;28;20039;-66
2022/12/13 07:46:13;;;;;;;1999.90;999.90;;;-4.70;99.90;;;;;;5049179;28;20052;-66
2022/12/13 07:48:39;;;;;;;1999.90;999.90;;;-4.70;99.90;;;;;;5046990;28;20040;-66
2022/12/13 07:51:07;;;;;;;1999.90;999.90;;;-4.70;99.90;;;;;;5045918;28;20083;-66
2022/12/13 07:53:33;;;;;;;1999.90;999.90;;;-4.70;99.90;;;;;;5070617;28;20048;-66
2022/12/13 07:56:04;;;;;;;1999.90;999.90;;;-4.70;99.90;;;;;;5044540;28;20124;-66
2022/12/13 07:58:32;;;;;;;1999.90;999.90;;;-4.70;99.90;;;;;;5039850;28;20449;-66
2022/12/13 08:01:06;;;;;;;1999.90;999.90;;;-4.70;99.90;;;;;;5046270;28;20047;-66
2022/12/13 08:03:32;;;;;;;1999.90;999.90;;;-4.70;99.90;;;;;;5043704;28;20103;-66
2022/12/13 08:06:18;;;;;;;1999.90;999.90;;;-4.70;99.90;;;;;;5048409;28;20041;-66
2022/12/13 08:08:43;;;;;;;1999.90;999.90;;;-4.60;99.90;;;;;;5047141;28;20044;-66
2022/12/13 08:11:15;;;;;;;1999.90;999.90;;;-4.50;99.90;;;;;;5079908;28;20093;-66
2022/12/13 08:13:41;;;;;;;1999.90;999.90;;;-4.50;99.90;;;;;;5044900;28;20405;-66
2022/12/13 08:16:09;;;;;;;1999.90;999.90;;;-4.40;99.90;;;;;;5028466;28;20388;-66
2022/12/13 08:18:35;;;;;;;1999.90;999.90;;;-4.30;99.90;;;;;;5044859;28;20060;-66
2022/12/13 08:21:03;;;;;;;1999.90;999.90;;;-4.20;99.90;;;;;;5062755;28;20036;-66
2022/12/13 08:23:33;;;;;;;1999.90;999.90;;;-4.10;99.90;;;;;;5047341;28;20454;-66
2022/12/13 08:26:00;;;;;;;1999.90;999.90;;;-3.90;99.90;;;;;;5046738;28;20097;-66
2022/12/13 08:28:26;;;;;;;1999.90;999.90;;;-3.70;99.90;;;;;;5030844;28;20044;-66
2022/12/13 08:30:53;;;;;;;1999.90;999.90;;;-3.60;99.90;;;;;;5043944;28;20044;-66
2022/12/13 08:33:19;;;;;;;1999.90;999.90;;;-3.50;99.90;;;;;;5072634;28;20390;-66
2022/12/13 08:35:45;;;;;;;1999.90;999.90;;;-3.40;99.90;;;;;;5048603;28;20127;-66
2022/12/13 08:38:11;;;;;;;1999.90;999.90;;;-3.20;99.90;;;;;;5043075;28;20516;-66
2022/12/13 08:40:37;;;;;;;1999.90;999.90;;;-3.00;99.90;;;;;;5030445;28;20492;-66
2022/12/13 08:43:04;;;;;;;1999.90;999.90;;;-2.70;99.90;;;;;;5045308;28;20076;-66
2022/12/13 08:45:31;;;;;;;1999.90;999.90;;;-2.50;99.90;;;;;;5047087;28;20394;-66
2022/12/13 08:47:58;;;;;;;1999.90;999.90;;;-2.30;99.90;;;;;;5045199;28;20082;-66
2022/12/13 08:50:24;;;;;;;1999.90;999.90;;;-2.10;99.90;;;;;;5044759;28;20117;-66
2022/12/13 08:52:50;;;;;;;1999.90;999.90;;;-1.80;99.90;;;;;;5030786;28;20060;-66
2022/12/13 08:55:16;;;;;;;1999.90;999.90;;;-1.60;99.90;;;;;;5046493;28;20040;-66
2022/12/13 08:57:42;;;;;;;1999.90;999.90;;;-1.50;99.90;;;;;;5047064;28;20048;-66
2022/12/13 09:00:12;;;;;;;1999.90;999.90;;;-1.30;99.90;;;;;;5062768;28;20136;-66
2022/12/13 09:02:38;;;;;;;1999.90;999.90;;;-1.30;99.90;;;;;;5043266;28;20057;-66
2022/12/13 09:05:06;;;;;;;1999.90;999.90;;;-1.30;99.90;;;;;;5026786;28;20044;-66
2022/12/13 09:07:31;;;;;;;1999.90;999.90;;;-1.30;99.90;;;;;;5042693;28;20045;-66
2022/12/13 09:09:57;;;;;;;1999.90;999.90;;;-1.30;99.90;;;;;;5044724;28;20051;-67
2022/12/13 09:12:23;;;;;;;1999.90;999.90;;;-1.20;99.90;;;;;;5030888;28;20036;-66
2022/12/13 09:14:48;;;;;;;1999.90;999.90;;;-1.10;99.90;;;;;;5046245;28;20038;-66
2022/12/13 09:17:15;;;;;;;1999.90;999.90;;;-1.10;99.90;;;;;;5044700;28;20551;-66
2022/12/13 09:19:40;;;;;;;1999.90;999.90;;;-1.10;99.90;;;;;;5030509;28;20054;-66
2022/12/13 09:22:06;;;;;;;1999.90;999.90;;;-1.10;99.90;;;;;;5049578;28;20433;-66
2022/12/13 09:24:32;;;;;;;1999.90;999.90;;;-1.10;99.90;;;;;;5068998;28;20039;-66
2022/12/13 09:26:57;;;;;;;1999.90;999.90;;;-1.10;99.90;;;;;;5069630;28;20040;-67
2022/12/13 09:29:24;;;;;;;1999.90;999.90;;;-1.10;99.90;;;;;;5046146;28;20040;-67
2022/12/13 09:31:49;;;;;;;1999.90;999.90;;;-1.10;99.90;;;;;;5049278;28;20060;-67
2022/12/13 09:34:15;;;;;;;1999.90;999.90;;;-1.10;99.90;;;;;;5032403;28;20036;-67
2022/12/13 09:36:41;;;;;;;1999.90;999.90;;;-1.00;99.90;;;;;;5047738;28;20553;-67
2022/12/13 09:39:07;;;;;;;1999.90;999.90;;;-0.90;99.90;;;;;;5048011;28;20036;-67
2022/12/13 09:41:49;;;;;;;1999.90;999.90;;;-0.80;99.90;;;;;;5047732;28;20119;-67
2022/12/13 09:44:20;;;;;;;1999.90;999.90;;;-0.70;99.90;;;;;;5031253;28;20072;-67
2022/12/13 09:46:47;;;;;;;1999.90;999.90;;;-0.60;99.90;;;;;;5050077;28;20050;-67
2022/12/13 09:49:43;;;;;;;1999.90;999.90;;;-0.50;99.90;;;;;;5030735;28;20494;-67
2022/12/13 09:52:17;;;;;;;1999.90;999.90;;;-0.40;99.90;;;;;;5041566;28;20071;-67
2022/12/13 09:54:43;;;;;;;1999.90;999.90;;;-0.30;99.90;;;;;;5049204;28;20075;-68
2022/12/13 09:57:16;;;;;;;1999.90;999.90;;;-0.30;99.90;;;;;;5065669;28;20080;-68
2022/12/13 09:59:42;;;;;;;1999.90;999.90;;;-0.20;99.90;;;;;;5029698;28;20383;-68
2022/12/13 10:02:27;;;;;;;1999.90;999.90;;;-0.10;99.90;;;;;;5047685;28;20052;-68
2022/12/13 10:05:13;;;;;;;1999.90;999.90;;;-0.10;99.90;;;;;;5048240;28;20040;-68
2022/12/13 10:07:39;;;;;;;1999.90;999.90;;;-0.10;99.90;;;;;;5047053;28;20384;-68
2022/12/13 10:10:05;;;;;;;1999.90;999.90;;;0.00;99.90;;;;;;5050062;28;20078;-68
2022/12/13 10:12:32;;;;;;;1999.90;999.90;;;0.10;99.90;;;;;;5048482;28;20540;-68
2022/12/13 10:15:01;;;;;;;1999.90;999.90;;;0.10;99.90;;;;;;5031193;28;20109;-68
2022/12/13 10:17:33;;;;;;;1999.90;999.90;;;0.20;99.90;;;;;;5049105;28;20093;-68
2022/12/13 10:19:59;;;;;;;1999.90;999.90;;;0.30;99.90;;;;;;5045296;28;20040;-68
2022/12/13 10:22:24;;;;;;;1999.90;999.90;;;0.30;99.90;;;;;;5033639;28;20105;-68
2022/12/13 10:25:05;;;;;;;1999.90;999.90;;;0.40;99.90;;;;;;5079238;28;20489;-68
2022/12/13 10:27:42;;;;;;;1999.90;999.90;;;0.50;99.90;;;;;;5029173;28;20040;-69
2022/12/13 10:30:21;;;;;;;1999.90;999.90;;;0.60;99.90;;;;;;5046530;28;21045;-68
2022/12/13 10:32:56;;;;;;;1999.90;999.90;;;0.60;99.90;;;;;;5048987;28;20037;-68
2022/12/13 10:35:28;;;;;;;1999.90;999.90;;;0.60;99.90;;;;;;5043479;28;20139;-68
2022/12/13 10:37:55;;;;;;;1999.90;999.90;;;0.60;99.90;;;;;;5043731;28;20036;-68
2022/12/13 10:40:47;;;;;;;1999.90;999.90;;;0.60;99.90;;;;;;5048412;28;20406;-68
2022/12/13 10:43:19;;;;;;;1999.90;999.90;;;0.70;99.90;;;;;;5048413;28;20111;-68
2022/12/13 10:46:16;;;;;;;1999.90;999.90;;;0.80;99.90;;;;;;5031255;28;20047;-68
2022/12/13 10:48:50;;;;;;;1999.90;999.90;;;0.80;99.90;;;;;;5040774;28;20040;-68
2022/12/13 10:51:20;;;;;;;1999.90;999.90;;;1.00;99.90;;;;;;5026751;28;20045;-68
2022/12/13 10:53:56;;;;;;;1999.90;999.90;;;0.90;99.90;;;;;;5064962;28;20048;-68
2022/12/13 10:56:31;;;;;;;1999.90;999.90;;;1.00;99.90;;;;;;5031049;28;20623;-68
2022/12/13 10:59:31;;;;;;;1999.90;999.90;;;1.10;99.90;;;;;;5029378;28;20123;-67
2022/12/13 11:01:57;;;;;;;1999.90;999.90;;;1.20;99.90;;;;;;4988200;28;20053;-68
2022/12/13 11:04:28;;;;;;;1999.90;999.90;;;1.20;99.90;;;;;;4984740;28;20042;-67
2022/12/13 11:06:56;;;;;;;1999.90;999.90;;;1.30;99.90;;;;;;4984146;28;20121;-68
2022/12/13 11:09:28;;;;;;;1999.90;999.90;;;1.40;99.90;;;;;;4984123;28;20058;-68
2022/12/13 11:12:16;;;;;;;1999.90;999.90;;;1.40;99.90;;;;;;4985117;28;20574;-68
2022/12/13 11:14:52;;;;;;;1999.90;999.90;;;1.40;99.90;;;;;;4960408;28;20393;-68
2022/12/13 11:17:21;;;;;;;1999.90;999.90;;;1.40;99.90;;;;;;4968468;28;20050;-68
2022/12/13 11:19:51;;;;;;;1999.90;999.90;;;1.40;99.90;;;;;;4987394;28;20038;-68
2022/12/13 11:22:24;;;;;;;1999.90;999.90;;;1.40;99.90;;;;;;4983867;28;20069;-69
2022/12/13 11:24:54;;;;;;;1999.90;999.90;;;1.50;99.90;;;;;;4981772;28;20455;-68
2022/12/13 11:27:43;;;;;;;1999.90;999.90;;;1.50;99.90;;;;;;4966859;28;20046;-68
2022/12/13 11:30:12;;;;;;;1999.90;999.90;;;1.60;99.90;;;;;;4985926;28;20045;-68
2022/12/13 11:33:00;;;;;;;1999.90;999.90;;;1.70;99.90;;;;;;4986375;28;20077;-68
2022/12/13 11:35:37;;;;;;;1999.90;999.90;;;1.80;99.90;;;;;;4981442;28;20077;-68
2022/12/13 11:38:24;;;;;;;1999.90;999.90;;;1.90;99.90;;;;;;5028217;28;20779;-68
2022/12/13 11:40:59;;;;;;;1999.90;999.90;;;2.00;99.90;;;;;;5030526;28;20657;-69
2022/12/13 11:43:41;;;;;;;1999.90;999.90;;;2.00;99.90;;;;;;5059777;28;20040;-67
2022/12/13 11:46:18;;;;;;;1999.90;999.90;;;2.10;99.90;;;;;;5046600;28;20049;-67
2022/12/13 11:48:55;;;;;;;1999.90;999.90;;;2.10;99.90;;;;;;5028622;28;20040;-69
2022/12/13 11:51:30;;;;;;;1999.90;999.90;;;2.20;99.90;;;;;;5029031;28;20037;-67
2022/12/13 11:54:06;;;;;;;1999.90;999.90;;;2.20;99.90;;;;;;5046733;28;20094;-67
2022/12/13 11:56:38;;;;;;;1999.90;999.90;;;2.20;99.90;;;;;;5075785;28;20091;-67
2022/12/13 11:59:26;;;;;;;1999.90;999.90;;;2.20;99.90;;;;;;5042301;28;20338;-67
2022/12/13 12:02:04;;;;;;;1999.90;999.90;;;2.30;99.90;;;;;;5041447;28;20068;-67
2022/12/13 12:04:50;;;;;;;1999.90;999.90;;;2.30;99.90;;;;;;5061940;28;20152;-67
2022/12/13 12:07:20;;;;;;;1999.90;999.90;;;2.30;99.90;;;;;;5046079;28;20036;-67
2022/12/13 12:10:01;;;;;;;1999.90;999.90;;;2.40;99.90;;;;;;5037355;28;20049;-66
2022/12/13 12:12:32;;;;;;;1999.90;999.90;;;2.30;99.90;;;;;;5026185;28;20433;-66
2022/12/13 12:15:13;;;;;;;1999.90;999.90;;;2.30;99.90;;;;;;5039522;28;20124;-66
2022/12/13 12:17:39;;;;;;;1999.90;999.90;;;2.30;99.90;;;;;;5042905;28;20048;-66
2022/12/13 12:20:10;;;;;;;1999.90;999.90;;;2.30;99.90;;;;;;5041978;28;20118;-67